Mishongnovi, Arizona
Current Conditions -  °F | °C
As of 4:56 PM on Friday 24 Oct 2014 (Local Time) from KINW Reporting Station
Clear Clear  
Wind Chill: 81°   Ceiling: Unl
Heat Index: 81°   Visibility: 10mi
Dew Point: 34°   Wind: 5mph
Humidity: 18%   Direction: 90°E
Pressure: 30.18"   Gusts: NA
Location:  35.9162°N, 110.658°W
Report Text: KINW 242356Z AUTO 09004KT 10SM CLR 27/01 A3018 RMK AO2 SLP169 T02720011 10289 20211 56009
Loading
Personal Weather Stations






























Interactive Weather Map
Tropical Storm Tracking
New forecast layout! Learn more

10-Day Weather Forecast

Advertisements
Track Severe Weather on mobile